Time;durP1;ratioP1;P1;durP2;ratioP2;P2;SDS_P1;SDS_P2;PMS_P1;PMS_P2;Temp;Humidity;BMP_temperature;BMP_pressure;BME280_temperature;BME280_humidity;BME280_pressure;Samples;Min_cycle;Max_cycle;Signal;HPM_P1;HPM_P2
2020/12/10 00:00:54;;;;;;;5.18;4.68;;;18.10;54.30;;;;;;5045836;28;20232;-61
2020/12/10 00:03:19;;;;;;;4.55;4.00;;;18.10;54.30;;;;;;5046069;28;20181;-60
2020/12/10 00:05:45;;;;;;;4.85;4.35;;;18.10;54.30;;;;;;5045483;28;20178;-60
2020/12/10 00:08:11;;;;;;;4.22;3.92;;;18.10;54.30;;;;;;5046101;28;20175;-59
2020/12/10 00:10:37;;;;;;;4.97;4.50;;;18.10;54.30;;;;;;5045736;28;20221;-59
2020/12/10 00:13:02;;;;;;;4.57;3.95;;;18.00;54.20;;;;;;5045444;28;20203;-60
2020/12/10 00:15:28;;;;;;;4.20;3.80;;;18.00;54.30;;;;;;5046038;28;20183;-60
2020/12/10 00:17:54;;;;;;;4.78;4.18;;;18.00;54.30;;;;;;5045832;28;20252;-60
2020/12/10 00:20:19;;;;;;;4.50;4.07;;;18.00;54.30;;;;;;5045499;28;20206;-60
2020/12/10 00:22:45;;;;;;;4.55;4.07;;;18.00;54.30;;;;;;5045297;28;20194;-60
2020/12/10 00:25:10;;;;;;;4.50;4.10;;;18.00;54.30;;;;;;5045618;28;20579;-60
2020/12/10 00:27:36;;;;;;;4.30;3.65;;;17.90;54.20;;;;;;5045658;28;20187;-60
2020/12/10 00:30:09;;;;;;;3.90;3.60;;;17.90;54.20;;;;;;5045147;28;20201;-60
2020/12/10 00:32:35;;;;;;;4.40;4.00;;;17.90;54.30;;;;;;5045186;28;20711;-60
2020/12/10 00:35:00;;;;;;;4.80;4.30;;;17.90;54.30;;;;;;5045485;28;20179;-60
2020/12/10 00:37:26;;;;;;;4.55;4.15;;;17.90;54.20;;;;;;5045125;28;20237;-58
2020/12/10 00:39:52;;;;;;;4.70;4.30;;;17.90;54.30;;;;;;5045130;28;20185;-61
2020/12/10 00:42:17;;;;;;;4.90;4.50;;;17.90;54.30;;;;;;5027646;28;20175;-60
2020/12/10 00:44:43;;;;;;;4.57;4.18;;;17.80;54.20;;;;;;5045134;28;20206;-60
2020/12/10 00:47:09;;;;;;;4.20;3.80;;;17.80;54.30;;;;;;5045299;28;20171;-61
2020/12/10 00:49:34;;;;;;;4.10;3.70;;;17.80;54.20;;;;;;5045016;28;20183;-60
2020/12/10 00:52:00;;;;;;;3.97;3.67;;;17.70;54.20;;;;;;5044731;28;20195;-61
2020/12/10 00:54:25;;;;;;;4.47;3.78;;;17.70;54.20;;;;;;5044941;28;20643;-60
2020/12/10 00:56:51;;;;;;;4.22;3.83;;;17.80;54.30;;;;;;5044961;28;20610;-60
2020/12/10 00:59:16;;;;;;;3.72;3.42;;;17.70;54.20;;;;;;5045040;28;20171;-60
2020/12/10 01:01:42;;;;;;;4.28;3.88;;;17.70;54.30;;;;;;5045124;28;20257;-59
2020/12/10 01:04:09;;;;;;;3.88;3.55;;;17.70;54.20;;;;;;5045164;28;20178;-59
2020/12/10 01:06:34;;;;;;;4.40;4.00;;;17.70;54.30;;;;;;5044671;28;20229;-59
2020/12/10 01:09:00;;;;;;;4.40;3.97;;;17.70;54.20;;;;;;5045030;28;20175;-59
2020/12/10 01:11:29;;;;;;;4.10;3.78;;;17.60;54.20;;;;;;5044355;28;20209;-59
2020/12/10 01:13:55;;;;;;;4.15;3.65;;;17.60;54.20;;;;;;5044842;28;20195;-61
2020/12/10 01:16:21;;;;;;;3.90;3.53;;;17.60;54.20;;;;;;5027209;28;20264;-60
2020/12/10 01:18:47;;;;;;;4.15;3.83;;;17.60;54.20;;;;;;5027226;28;20628;-60
2020/12/10 01:21:12;;;;;;;3.92;3.63;;;17.60;54.20;;;;;;5044503;28;20221;-60
2020/12/10 01:23:38;;;;;;;4.28;3.88;;;17.60;54.20;;;;;;5044696;28;20627;-60
2020/12/10 01:26:03;;;;;;;4.20;3.80;;;17.60;54.20;;;;;;5044465;28;20209;-59
2020/12/10 01:28:29;;;;;;;4.22;3.85;;;17.60;54.20;;;;;;5044685;28;20175;-57
2020/12/10 01:30:55;;;;;;;4.38;3.97;;;17.50;54.20;;;;;;5044498;28;20194;-60
2020/12/10 01:33:20;;;;;;;3.78;3.40;;;17.50;54.20;;;;;;5044549;28;20206;-58
2020/12/10 01:35:46;;;;;;;3.97;3.67;;;17.50;54.20;;;;;;5044210;28;20610;-60
2020/12/10 01:38:11;;;;;;;3.92;3.63;;;17.50;54.20;;;;;;5026662;28;20186;-60
2020/12/10 01:40:37;;;;;;;4.20;3.90;;;17.50;54.30;;;;;;5044451;28;20179;-60
2020/12/10 01:43:02;;;;;;;4.18;3.88;;;17.50;54.20;;;;;;5044512;28;20174;-59
2020/12/10 01:45:28;;;;;;;4.03;3.63;;;17.50;54.20;;;;;;5026532;28;20171;-60
2020/12/10 01:47:54;;;;;;;5.15;4.00;;;17.40;54.20;;;;;;5044180;28;20183;-60
2020/12/10 01:50:19;;;;;;;4.30;3.95;;;17.50;54.20;;;;;;5044083;28;20175;-59
2020/12/10 01:52:45;;;;;;;3.80;3.50;;;17.40;54.20;;;;;;5044263;28;20289;-60
2020/12/10 01:55:10;;;;;;;3.95;3.65;;;17.40;54.10;;;;;;5026313;28;20189;-60
2020/12/10 01:57:36;;;;;;;3.60;3.30;;;17.40;54.20;;;;;;5044188;28;20428;-59
2020/12/10 02:00:01;;;;;;;3.30;3.00;;;17.40;54.20;;;;;;5043882;28;20175;-60
2020/12/10 02:02:27;;;;;;;3.50;3.20;;;17.40;54.20;;;;;;5026147;28;20577;-58
2020/12/10 02:04:52;;;;;;;4.50;4.10;;;17.40;54.20;;;;;;5026310;28;20187;-58
2020/12/10 02:07:18;;;;;;;3.60;3.30;;;17.40;54.10;;;;;;5044177;28;20179;-60
2020/12/10 02:09:43;;;;;;;4.15;3.75;;;17.30;54.10;;;;;;5043923;28;21130;-61
2020/12/10 02:12:09;;;;;;;3.83;3.53;;;17.30;54.10;;;;;;5043821;28;20207;-60
2020/12/10 02:14:37;;;;;;;3.92;3.63;;;17.30;54.10;;;;;;5026323;28;20540;-60
2020/12/10 02:17:03;;;;;;;4.10;3.80;;;17.30;54.20;;;;;;5044456;28;20171;-60
2020/12/10 02:19:29;;;;;;;4.22;3.92;;;17.30;54.10;;;;;;5048344;28;20583;-61
2020/12/10 02:21:54;;;;;;;3.50;3.20;;;17.30;54.10;;;;;;5047707;28;20198;-60
2020/12/10 02:24:20;;;;;;;3.72;3.42;;;17.30;54.10;;;;;;5030137;28;20609;-59
2020/12/10 02:26:46;;;;;;;4.20;3.72;;;17.30;54.10;;;;;;5030043;28;20233;-58
2020/12/10 02:29:11;;;;;;;4.22;3.80;;;17.20;54.10;;;;;;5048001;28;20179;-57
2020/12/10 02:31:37;;;;;;;4.53;4.13;;;17.20;54.10;;;;;;5047664;28;20198;-59
2020/12/10 02:34:06;;;;;;;3.72;3.42;;;17.20;54.10;;;;;;5047695;28;20178;-59
2020/12/10 02:36:32;;;;;;;3.95;3.60;;;17.20;54.10;;;;;;5047421;28;20183;-58
2020/12/10 02:38:58;;;;;;;3.67;3.38;;;17.20;54.10;;;;;;5047632;28;20190;-60
2020/12/10 02:41:23;;;;;;;4.07;3.78;;;17.20;54.10;;;;;;5047733;28;20175;-59
2020/12/10 02:43:49;;;;;;;4.10;3.80;;;17.20;54.10;;;;;;5047472;28;20168;-61
2020/12/10 02:46:15;;;;;;;4.20;3.80;;;17.20;54.00;;;;;;5029824;28;20566;-58
2020/12/10 02:48:40;;;;;;;4.03;3.72;;;17.20;54.10;;;;;;5047357;28;20258;-60
2020/12/10 02:51:06;;;;;;;4.03;3.63;;;17.10;54.10;;;;;;5047271;28;20178;-59
2020/12/10 02:53:33;;;;;;;4.03;3.72;;;17.10;54.00;;;;;;5047268;28;20183;-61
2020/12/10 02:55:58;;;;;;;4.00;3.60;;;17.10;54.10;;;;;;5029737;28;20237;-60
2020/12/10 02:58:24;;;;;;;3.85;3.55;;;17.10;54.10;;;;;;5047305;28;20595;-59
2020/12/10 03:00:49;;;;;;;4.03;3.72;;;17.10;54.10;;;;;;5047114;28;20179;-61
2020/12/10 03:03:15;;;;;;;4.00;3.70;;;17.10;54.10;;;;;;5047112;28;20179;-59
2020/12/10 03:05:41;;;;;;;3.63;3.33;;;17.10;54.10;;;;;;5047037;28;20176;-57
2020/12/10 03:08:07;;;;;;;4.32;3.92;;;17.00;54.60;;;;;;5047106;28;20171;-58
2020/12/10 03:10:32;;;;;;;3.65;3.35;;;17.10;54.00;;;;;;5047542;28;20190;-58
2020/12/10 03:12:58;;;;;;;3.63;3.33;;;17.00;54.00;;;;;;5047098;28;20664;-58
2020/12/10 03:15:23;;;;;;;3.85;3.55;;;17.00;54.00;;;;;;5046810;28;20175;-60
2020/12/10 03:17:49;;;;;;;4.10;3.80;;;17.00;54.00;;;;;;5046798;28;20171;-60
2020/12/10 03:20:16;;;;;;;4.43;4.03;;;17.00;54.00;;;;;;5046544;28;20278;-60
2020/12/10 03:22:41;;;;;;;4.05;3.75;;;17.00;54.10;;;;;;5046959;28;20179;-60
2020/12/10 03:25:07;;;;;;;3.53;3.22;;;17.00;54.00;;;;;;5047166;28;20201;-61
2020/12/10 03:27:32;;;;;;;4.32;3.92;;;17.00;54.10;;;;;;5047093;28;20182;-60
2020/12/10 03:29:58;;;;;;;4.07;3.70;;;17.00;54.00;;;;;;5046567;28;20183;-60
2020/12/10 03:32:23;;;;;;;4.18;3.78;;;16.90;54.00;;;;;;5046609;28;20210;-59
2020/12/10 03:34:49;;;;;;;4.60;4.20;;;16.90;54.00;;;;;;5046768;28;20220;-58
2020/12/10 03:37:14;;;;;;;4.55;3.80;;;16.90;54.00;;;;;;5046970;28;20361;-58
2020/12/10 03:39:40;;;;;;;4.18;3.88;;;16.90;54.00;;;;;;5046565;28;20180;-58
2020/12/10 03:42:05;;;;;;;4.45;3.97;;;16.90;54.00;;;;;;5046477;28;20216;-60
2020/12/10 03:44:31;;;;;;;4.65;4.22;;;16.90;54.00;;;;;;5046218;28;20816;-58
2020/12/10 03:46:57;;;;;;;4.10;3.75;;;16.90;54.00;;;;;;5046320;28;20179;-60
2020/12/10 03:49:22;;;;;;;4.07;3.70;;;16.90;54.10;;;;;;5046157;28;20187;-58
2020/12/10 03:51:48;;;;;;;3.38;3.08;;;16.90;54.00;;;;;;5046298;28;20206;-58
2020/12/10 03:54:13;;;;;;;4.18;3.85;;;16.80;53.90;;;;;;5046282;28;20186;-58
2020/12/10 03:56:39;;;;;;;3.97;3.67;;;16.80;54.00;;;;;;5046181;28;20186;-60
2020/12/10 03:59:05;;;;;;;4.90;4.45;;;16.80;54.00;;;;;;5046127;28;20300;-60
2020/12/10 04:01:30;;;;;;;3.90;3.60;;;16.80;53.90;;;;;;5046100;28;20182;-60
2020/12/10 04:03:56;;;;;;;4.38;3.97;;;16.80;54.00;;;;;;5045827;28;20167;-59
2020/12/10 04:06:22;;;;;;;3.70;3.40;;;16.80;54.00;;;;;;5045877;28;20215;-58
2020/12/10 04:08:47;;;;;;;4.60;4.20;;;16.80;54.00;;;;;;5045998;28;20175;-58
2020/12/10 04:11:13;;;;;;;4.13;3.83;;;16.70;54.20;;;;;;5045707;28;20171;-57
2020/12/10 04:13:38;;;;;;;4.10;3.80;;;16.80;54.00;;;;;;5045935;28;20229;-59
2020/12/10 04:16:04;;;;;;;4.05;3.75;;;16.70;53.90;;;;;;5045587;28;20186;-59
2020/12/10 04:18:30;;;;;;;4.30;3.90;;;16.70;53.90;;;;;;5045788;28;20587;-59
2020/12/10 04:20:56;;;;;;;4.25;3.92;;;16.70;54.00;;;;;;5045448;28;20171;-60
2020/12/10 04:23:22;;;;;;;4.60;4.20;;;16.70;54.00;;;;;;5045456;28;20186;-59
2020/12/10 04:25:54;;;;;;;4.30;3.92;;;16.70;54.00;;;;;;5027373;28;20590;-60
2020/12/10 04:28:20;;;;;;;4.20;3.75;;;16.70;54.00;;;;;;5045983;28;20346;-58
2020/12/10 04:30:46;;;;;;;4.22;3.92;;;16.70;53.90;;;;;;5045448;28;20706;-58
2020/12/10 04:33:12;;;;;;;4.70;4.32;;;16.70;53.90;;;;;;5045278;28;20304;-57
2020/12/10 04:35:37;;;;;;;4.43;4.05;;;16.60;53.90;;;;;;5045460;28;20261;-56
2020/12/10 04:38:03;;;;;;;4.38;3.97;;;16.70;54.00;;;;;;5045449;28;20180;-60
2020/12/10 04:40:29;;;;;;;3.95;3.65;;;16.60;53.90;;;;;;5044490;28;20182;-60
2020/12/10 04:42:55;;;;;;;4.45;4.05;;;16.60;53.90;;;;;;5045253;28;20325;-60
2020/12/10 04:45:21;;;;;;;4.53;4.15;;;16.60;53.90;;;;;;5027143;28;20186;-60
2020/12/10 04:47:46;;;;;;;3.97;3.67;;;16.60;54.00;;;;;;5045356;28;20171;-61
2020/12/10 04:50:18;;;;;;;4.68;4.05;;;16.60;53.90;;;;;;5045383;28;20203;-59
2020/12/10 04:52:43;;;;;;;4.43;4.13;;;16.60;53.90;;;;;;5045088;28;20199;-59
2020/12/10 04:55:09;;;;;;;4.60;4.20;;;16.60;53.90;;;;;;5044806;28;20183;-59
2020/12/10 04:57:35;;;;;;;4.47;4.07;;;16.60;53.90;;;;;;5044862;28;20171;-58
2020/12/10 05:00:01;;;;;;;4.00;3.70;;;16.60;54.00;;;;;;5044972;28;20278;-60
2020/12/10 05:02:26;;;;;;;4.40;4.00;;;16.50;53.90;;;;;;5044958;28;20180;-60
2020/12/10 05:04:53;;;;;;;4.38;4.07;;;16.60;54.00;;;;;;5044847;28;20659;-60
2020/12/10 05:07:18;;;;;;;4.30;3.90;;;16.50;53.90;;;;;;5044984;28;20175;-59
2020/12/10 05:09:55;;;;;;;4.72;4.32;;;16.60;53.90;;;;;;5026848;28;20183;-58
2020/12/10 05:12:21;;;;;;;4.75;4.35;;;16.50;53.90;;;;;;5044612;28;20217;-60
2020/12/10 05:14:47;;;;;;;4.88;4.28;;;16.50;53.90;;;;;;5026787;28;20187;-60
2020/12/10 05:17:14;;;;;;;4.32;3.92;;;16.40;53.90;;;;;;5044583;28;20171;-59
2020/12/10 05:19:40;;;;;;;4.43;4.10;;;16.50;54.00;;;;;;5044782;28;20618;-60
2020/12/10 05:22:06;;;;;;;4.22;3.92;;;16.40;53.90;;;;;;5044432;28;20175;-58
2020/12/10 05:24:32;;;;;;;4.82;4.32;;;16.50;54.00;;;;;;5044646;28;20203;-61
2020/12/10 05:27:19;;;;;;;4.72;4.30;;;16.50;54.00;;;;;;5044357;28;20179;-59
2020/12/10 05:29:45;;;;;;;4.38;4.07;;;16.40;53.90;;;;;;5044516;28;20171;-58
2020/12/10 05:32:31;;;;;;;4.57;4.20;;;16.40;53.90;;;;;;5044590;28;20206;-60
2020/12/10 05:34:56;;;;;;;4.38;3.97;;;16.40;54.00;;;;;;5044655;28;20179;-59
2020/12/10 05:37:29;;;;;;;4.35;3.95;;;16.40;53.90;;;;;;5044383;28;20190;-58
2020/12/10 05:39:59;;;;;;;4.80;4.40;;;16.40;53.90;;;;;;5044816;28;20250;-60
2020/12/10 05:42:26;;;;;;;4.82;4.43;;;16.40;53.90;;;;;;5043874;28;20175;-61
2020/12/10 05:44:52;;;;;;;4.45;4.15;;;16.40;53.90;;;;;;5026563;28;20182;-60
2020/12/10 05:47:17;;;;;;;5.15;4.65;;;16.40;53.90;;;;;;5044159;28;20530;-60
2020/12/10 05:49:43;;;;;;;4.32;3.92;;;16.30;53.90;;;;;;5026455;28;20174;-60
2020/12/10 05:52:08;;;;;;;5.03;4.53;;;16.30;53.90;;;;;;5009084;28;20241;-60
2020/12/10 05:54:34;;;;;;;4.22;3.92;;;16.40;53.90;;;;;;5009975;28;20175;-61
2020/12/10 05:57:04;;;;;;;4.65;4.25;;;16.30;53.90;;;;;;5044119;28;20633;-60
2020/12/10 05:59:30;;;;;;;4.50;4.10;;;16.30;54.00;;;;;;5043895;28;20537;-60
2020/12/10 06:02:03;;;;;;;4.38;4.07;;;16.40;53.90;;;;;;5044207;28;20167;-60
2020/12/10 06:04:28;;;;;;;4.35;4.00;;;16.40;54.00;;;;;;5027060;28;20207;-59
2020/12/10 06:06:57;;;;;;;4.18;3.88;;;16.40;54.00;;;;;;5043957;28;20218;-59
2020/12/10 06:09:22;;;;;;;4.40;4.00;;;16.50;54.10;;;;;;5043659;28;20432;-58
2020/12/10 06:11:48;;;;;;;4.63;4.22;;;16.60;54.30;;;;;;5009592;28;20692;-61
2020/12/10 06:14:13;;;;;;;4.72;4.30;;;16.70;54.10;;;;;;5043995;28;20517;-60
2020/12/10 06:16:39;;;;;;;3.72;3.42;;;16.90;53.90;;;;;;5043863;28;20221;-60
2020/12/10 06:19:10;;;;;;;4.00;3.67;;;17.10;53.70;;;;;;5043816;28;20528;-61
2020/12/10 06:21:46;;;;;;;3.55;3.35;;;17.20;53.40;;;;;;5043766;28;20706;-59
2020/12/10 06:24:26;;;;;;;4.30;4.00;;;17.40;53.10;;;;;;5043673;28;20194;-61
2020/12/10 06:26:58;;;;;;;3.83;3.53;;;17.50;52.90;;;;;;5043672;28;20171;-61
2020/12/10 06:29:26;;;;;;;3.90;3.60;;;17.60;52.70;;;;;;5043590;28;20183;-59
2020/12/10 06:31:59;;;;;;;3.75;3.45;;;17.70;52.60;;;;;;5043676;28;20191;-60
2020/12/10 06:34:42;;;;;;;3.45;3.22;;;17.80;52.40;;;;;;5043900;28;20171;-60
2020/12/10 06:37:30;;;;;;;3.80;3.47;;;17.90;52.30;;;;;;5043664;28;20176;-61
2020/12/10 06:39:59;;;;;;;3.58;3.33;;;18.00;52.00;;;;;;5043650;28;20178;-59
2020/12/10 06:42:24;;;;;;;3.75;3.45;;;18.10;51.90;;;;;;5043515;28;20171;-60
2020/12/10 06:44:50;;;;;;;4.03;3.72;;;18.20;51.80;;;;;;5043383;28;20229;-60
2020/12/10 06:47:17;;;;;;;3.83;3.53;;;18.20;51.70;;;;;;5043892;28;20171;-60
2020/12/10 06:49:43;;;;;;;4.13;3.72;;;18.20;51.60;;;;;;5043894;28;20629;-59
2020/12/10 06:52:12;;;;;;;3.38;3.00;;;18.30;51.60;;;;;;5043662;28;20190;-60
2020/12/10 06:55:07;;;;;;;3.85;3.55;;;18.30;51.50;;;;;;5043064;28;20553;-60
2020/12/10 06:57:51;;;;;;;3.80;3.53;;;18.30;51.50;;;;;;5043417;28;20179;-60
2020/12/10 07:00:40;;;;;;;4.03;3.67;;;18.20;51.70;;;;;;5043764;28;20187;-60
2020/12/10 07:03:15;;;;;;;3.80;3.50;;;18.20;51.80;;;;;;5027393;28;20175;-60
2020/12/10 07:05:41;;;;;;;3.58;3.28;;;18.10;51.90;;;;;;5047070;28;20190;-60
2020/12/10 07:08:08;;;;;;;3.50;3.20;;;18.00;52.10;;;;;;5047347;28;20175;-60
2020/12/10 07:10:53;;;;;;;4.35;3.40;;;17.90;52.20;;;;;;5047021;28;20178;-59
2020/12/10 07:13:29;;;;;;;3.30;3.00;;;17.80;52.40;;;;;;5046726;28;20316;-59
2020/12/10 07:15:55;;;;;;;4.10;3.80;;;17.70;52.60;;;;;;5029252;28;20190;-60
2020/12/10 07:18:21;;;;;;;3.90;3.60;;;17.60;52.60;;;;;;5047169;28;20179;-60
2020/12/10 07:20:46;;;;;;;3.53;3.22;;;17.60;52.70;;;;;;5047059;28;20171;-61
2020/12/10 07:23:12;;;;;;;3.85;3.55;;;17.50;52.80;;;;;;5046998;28;21090;-61
2020/12/10 07:25:37;;;;;;;3.95;3.55;;;17.40;52.90;;;;;;5046722;28;20244;-60
2020/12/10 07:28:03;;;;;;;4.68;3.63;;;17.40;53.00;;;;;;5046462;28;20175;-59
2020/12/10 07:30:30;;;;;;;3.42;3.13;;;17.30;53.00;;;;;;5046437;28;20180;-59
2020/12/10 07:32:57;;;;;;;3.80;3.40;;;17.40;53.10;;;;;;5046581;28;20206;-60
2020/12/10 07:35:34;;;;;;;4.03;3.72;;;17.30;53.10;;;;;;5046531;28;20183;-60
2020/12/10 07:38:10;;;;;;;3.63;3.33;;;17.30;53.20;;;;;;5028589;28;20229;-60
2020/12/10 07:40:36;;;;;;;3.40;3.10;;;17.30;53.10;;;;;;5046582;28;20210;-60
2020/12/10 07:43:05;;;;;;;3.20;3.00;;;17.20;53.10;;;;;;5028720;28;20413;-60
2020/12/10 07:45:31;;;;;;;3.95;3.60;;;17.20;53.10;;;;;;5046155;28;20178;-60
2020/12/10 07:47:57;;;;;;;3.47;3.17;;;17.20;53.20;;;;;;5046523;28;20167;-60
2020/12/10 07:50:26;;;;;;;3.60;3.30;;;17.20;53.30;;;;;;5046606;28;20191;-60
2020/12/10 07:52:52;;;;;;;3.80;3.50;;;17.10;53.30;;;;;;5045850;28;20647;-60
2020/12/10 07:55:25;;;;;;;3.80;3.50;;;17.10;53.30;;;;;;5046086;28;20178;-60
2020/12/10 07:58:10;;;;;;;4.30;3.90;;;17.10;53.40;;;;;;5012309;28;20175;-59
2020/12/10 08:00:36;;;;;;;3.33;3.13;;;17.10;53.40;;;;;;5028694;28;20241;-60
2020/12/10 08:03:22;;;;;;;3.60;3.30;;;17.10;53.40;;;;;;5046108;28;20632;-59
2020/12/10 08:06:04;;;;;;;3.65;3.35;;;17.00;53.40;;;;;;5046206;28;20175;-59
2020/12/10 08:08:38;;;;;;;3.70;3.40;;;17.10;53.50;;;;;;5045902;28;20179;-60
2020/12/10 08:11:18;;;;;;;3.63;3.38;;;17.10;53.40;;;;;;5045803;28;20228;-60
2020/12/10 08:14:05;;;;;;;3.70;3.40;;;17.10;53.30;;;;;;5045895;28;20547;-59
2020/12/10 08:16:41;;;;;;;3.92;3.63;;;17.20;53.90;;;;;;5045185;28;20181;-57
2020/12/10 08:19:14;;;;;;;3.55;3.25;;;17.20;53.30;;;;;;5045635;28;20177;-57
2020/12/10 08:21:39;;;;;;;3.80;3.50;;;17.20;53.20;;;;;;5045617;28;20203;-63
2020/12/10 08:24:05;;;;;;;4.32;3.92;;;17.20;53.70;;;;;;5045561;28;20269;-64
2020/12/10 08:26:30;;;;;;;4.45;3.95;;;17.10;53.40;;;;;;5027566;28;20179;-66
2020/12/10 08:28:56;;;;;;;3.90;3.60;;;17.10;53.40;;;;;;5045545;28;20179;-65
2020/12/10 08:31:26;;;;;;;4.57;4.05;;;17.10;53.50;;;;;;5027946;28;20244;-64
2020/12/10 08:33:52;;;;;;;5.32;3.92;;;17.10;53.60;;;;;;5045458;28;20186;-63
2020/12/10 08:36:29;;;;;;;4.25;3.83;;;17.10;53.90;;;;;;5053862;28;20192;-64
2020/12/10 08:38:55;;;;;;;4.47;3.83;;;17.10;53.80;;;;;;5053659;28;20171;-64
2020/12/10 08:41:32;;;;;;;4.65;4.15;;;17.20;53.80;;;;;;5055139;28;20702;-63
2020/12/10 08:44:05;;;;;;;4.47;3.83;;;17.30;53.70;;;;;;5020674;28;20195;-64
2020/12/10 08:46:31;;;;;;;4.32;3.92;;;17.30;53.70;;;;;;5036848;28;20190;-64
2020/12/10 08:49:16;;;;;;;4.50;4.10;;;17.20;53.70;;;;;;5054958;28;20183;-63
2020/12/10 08:51:43;;;;;;;4.43;4.03;;;17.30;53.80;;;;;;5054120;28;20292;-65
2020/12/10 08:54:09;;;;;;;4.68;4.22;;;17.20;53.70;;;;;;5052936;28;20741;-64
2020/12/10 08:56:36;;;;;;;3.97;3.65;;;17.20;53.70;;;;;;5055785;28;20174;-62
2020/12/10 08:59:02;;;;;;;4.55;4.10;;;17.20;53.80;;;;;;5054749;28;20208;-63
2020/12/10 09:01:27;;;;;;;3.75;3.45;;;17.20;53.80;;;;;;5054594;28;20175;-62
2020/12/10 09:03:53;;;;;;;3.90;3.60;;;17.30;53.80;;;;;;5053093;28;20228;-63
2020/12/10 09:06:18;;;;;;;5.50;4.35;;;17.30;53.80;;;;;;5053600;28;20636;-63
2020/12/10 09:08:45;;;;;;;4.15;3.80;;;17.30;53.70;;;;;;5054320;28;20171;-63
2020/12/10 09:11:10;;;;;;;5.75;3.50;;;17.40;53.80;;;;;;5053595;28;20229;-64
2020/12/10 09:13:36;;;;;;;4.32;3.67;;;17.40;53.70;;;;;;5054229;28;20580;-64
2020/12/10 09:16:01;;;;;;;4.40;4.00;;;17.40;53.70;;;;;;5062758;28;20195;-65
2020/12/10 09:18:27;;;;;;;4.50;4.03;;;17.40;53.70;;;;;;5064640;28;20182;-65
2020/12/10 09:20:53;;;;;;;4.03;3.72;;;17.30;53.80;;;;;;5064667;28;20273;-64
2020/12/10 09:23:18;;;;;;;6.70;4.28;;;17.30;53.90;;;;;;5064421;28;20546;-64
2020/12/10 09:25:44;;;;;;;3.92;3.63;;;17.20;54.10;;;;;;5064411;28;20262;-65
2020/12/10 09:28:10;;;;;;;4.38;4.05;;;17.20;54.10;;;;;;5064560;28;20182;-66
2020/12/10 09:30:39;;;;;;;5.07;4.18;;;17.20;54.40;;;;;;5064600;28;20261;-63
2020/12/10 09:33:04;;;;;;;5.50;4.97;;;17.20;54.50;;;;;;5064266;28;20582;-61
2020/12/10 09:35:30;;;;;;;5.20;4.70;;;17.20;54.40;;;;;;5064344;28;20178;-67
2020/12/10 09:37:56;;;;;;;6.30;4.20;;;17.30;54.30;;;;;;5046924;28;20580;-64
2020/12/10 09:40:21;;;;;;;4.22;3.83;;;17.30;54.50;;;;;;5064413;28;20174;-65
2020/12/10 09:42:48;;;;;;;5.90;4.40;;;17.40;54.50;;;;;;5064316;28;20364;-64
2020/12/10 09:45:17;;;;;;;5.10;3.97;;;17.40;54.40;;;;;;5064403;28;20174;-64
2020/12/10 09:47:44;;;;;;;5.22;3.75;;;17.40;54.30;;;;;;5046401;28;20201;-65
2020/12/10 09:50:19;;;;;;;8.65;4.00;;;17.60;54.30;;;;;;5064738;28;20173;-64
2020/12/10 09:52:53;;;;;;;5.22;3.80;;;17.90;54.00;;;;;;5063827;28;20197;-65
2020/12/10 09:56:35;;;;;;;4.28;3.85;;;18.20;53.20;;;;;;5047752;28;20642;-62
2020/12/10 09:58:13;;;;;;;5.18;4.32;;;18.60;52.60;;;;;;5037160;28;20190;-62
2020/12/10 10:00:39;;;;;;;4.20;3.65;;;18.90;52.00;;;;;;5064036;28;20620;-65
2020/12/10 10:03:07;;;;;;;4.97;3.40;;;19.10;51.80;;;;;;5064101;28;20547;-65
2020/12/10 10:05:33;;;;;;;3.88;3.58;;;19.20;51.60;;;;;;5064086;28;20177;-64
2020/12/10 10:07:59;;;;;;;6.50;3.33;;;19.30;51.30;;;;;;5046334;28;20612;-64
2020/12/10 10:10:25;;;;;;;4.47;3.53;;;19.40;51.30;;;;;;5063764;28;20257;-65
2020/12/10 10:12:50;;;;;;;4.88;3.88;;;19.60;51.10;;;;;;5045945;28;20212;-64
2020/12/10 10:15:17;;;;;;;6.60;3.50;;;19.60;51.10;;;;;;5063869;28;20171;-64
2020/12/10 10:17:43;;;;;;;7.70;3.42;;;19.70;51.00;;;;;;5046121;28;20538;-65
2020/12/10 10:20:08;;;;;;;4.45;3.85;;;19.80;51.00;;;;;;5063928;28;20178;-66
2020/12/10 10:22:38;;;;;;;6.18;4.20;;;19.80;50.90;;;;;;5063785;28;20174;-64
2020/12/10 10:25:04;;;;;;;4.85;3.85;;;19.80;50.90;;;;;;5063722;28;20194;-64
2020/12/10 10:27:30;;;;;;;5.53;4.00;;;19.80;50.80;;;;;;5063681;28;20178;-64
2020/12/10 10:29:55;;;;;;;6.80;3.67;;;19.80;50.80;;;;;;5063773;28;20698;-61
2020/12/10 10:32:21;;;;;;;8.63;4.00;;;19.90;50.80;;;;;;5063799;28;20575;-65
2020/12/10 10:34:46;;;;;;;4.80;3.72;;;19.90;50.80;;;;;;5054657;28;20183;-65
2020/12/10 10:37:12;;;;;;;5.75;3.80;;;19.80;50.80;;;;;;5045430;28;20187;-64
2020/12/10 10:39:37;;;;;;;8.95;3.80;;;19.80;50.90;;;;;;5066819;28;20170;-63
2020/12/10 10:42:03;;;;;;;6.10;3.63;;;19.80;50.90;;;;;;5060731;28;20189;-65
2020/12/10 10:44:28;;;;;;;6.28;3.85;;;19.70;50.90;;;;;;5047569;28;20594;-64
2020/12/10 10:46:54;;;;;;;6.28;4.15;;;19.70;51.10;;;;;;5047420;28;20180;-64
2020/12/10 10:49:20;;;;;;;4.28;3.88;;;19.60;51.00;;;;;;5047539;28;20167;-64
2020/12/10 10:51:49;;;;;;;4.40;3.55;;;19.60;51.10;;;;;;5063124;28;20202;-64
2020/12/10 10:54:14;;;;;;;6.50;3.50;;;19.60;51.10;;;;;;5049271;28;20175;-64
2020/12/10 10:56:40;;;;;;;7.18;4.00;;;19.60;51.10;;;;;;5067342;28;20171;-64
2020/12/10 10:59:05;;;;;;;3.72;3.42;;;19.60;51.00;;;;;;5067400;28;20178;-64
2020/12/10 11:01:31;;;;;;;5.75;3.30;;;19.70;51.00;;;;;;5049520;28;20205;-63
2020/12/10 11:03:57;;;;;;;4.90;3.70;;;19.70;50.90;;;;;;5067270;28;20197;-64
2020/12/10 11:06:22;;;;;;;4.25;3.50;;;19.70;50.80;;;;;;5066840;28;20226;-64
2020/12/10 11:08:48;;;;;;;3.80;3.40;;;19.80;50.80;;;;;;5050517;28;20267;-64
2020/12/10 11:11:20;;;;;;;3.60;3.20;;;19.70;50.80;;;;;;5047039;28;20175;-64
2020/12/10 11:13:46;;;;;;;5.93;3.45;;;19.80;50.70;;;;;;5046889;28;20211;-65
2020/12/10 11:16:12;;;;;;;3.47;3.17;;;19.80;50.70;;;;;;5046775;28;20587;-65
2020/12/10 11:18:39;;;;;;;3.35;3.05;;;19.80;50.70;;;;;;5047157;28;20194;-65
2020/12/10 11:21:05;;;;;;;3.92;3.47;;;19.80;50.70;;;;;;5046810;28;20185;-64
2020/12/10 11:23:30;;;;;;;4.35;3.72;;;19.80;50.70;;;;;;5046498;28;20191;-65
2020/12/10 11:25:56;;;;;;;5.28;3.45;;;19.80;50.70;;;;;;5046753;28;20171;-63
2020/12/10 11:28:22;;;;;;;4.28;3.50;;;19.80;50.70;;;;;;5046739;28;20199;-64
2020/12/10 11:30:47;;;;;;;3.97;3.20;;;19.90;50.70;;;;;;5047072;28;20175;-64
2020/12/10 11:33:13;;;;;;;3.90;3.60;;;19.80;50.70;;;;;;5047284;28;20238;-63
2020/12/10 11:35:39;;;;;;;4.15;3.40;;;19.90;50.50;;;;;;5046613;28;20501;-64
2020/12/10 11:38:04;;;;;;;4.88;3.90;;;19.90;50.50;;;;;;5046388;28;20172;-61
2020/12/10 11:40:30;;;;;;;9.73;3.78;;;20.00;50.50;;;;;;5046492;28;20241;-63
2020/12/10 11:42:55;;;;;;;4.28;3.50;;;20.00;50.70;;;;;;5062443;28;20186;-64
2020/12/10 11:45:21;;;;;;;4.00;3.60;;;19.90;50.80;;;;;;5066593;28;20181;-63
2020/12/10 11:47:48;;;;;;;3.78;3.38;;;20.00;50.90;;;;;;5066539;28;20189;-64
2020/12/10 11:50:18;;;;;;;6.30;3.30;;;19.90;51.00;;;;;;5066442;28;20166;-62
2020/12/10 11:52:48;;;;;;;3.40;3.10;;;19.90;51.00;;;;;;5066262;28;20209;-64
2020/12/10 11:55:13;;;;;;;4.32;3.60;;;19.90;51.10;;;;;;5048337;28;20236;-63
2020/12/10 11:57:39;;;;;;;3.88;3.53;;;19.90;51.10;;;;;;5066115;28;20650;-60
2020/12/10 12:00:06;;;;;;;5.72;3.47;;;19.90;51.30;;;;;;5066114;28;20636;-63
2020/12/10 12:02:31;;;;;;;5.25;3.50;;;19.80;51.10;;;;;;5066305;28;20204;-64
2020/12/10 12:04:57;;;;;;;6.60;3.92;;;19.80;51.30;;;;;;5066297;28;20257;-64
2020/12/10 12:07:22;;;;;;;5.50;3.00;;;19.70;51.40;;;;;;5066240;28;20628;-63
2020/12/10 12:09:48;;;;;;;3.53;3.20;;;19.70;51.60;;;;;;5066045;28;20167;-63
2020/12/10 12:12:13;;;;;;;4.72;2.80;;;19.60;51.80;;;;;;5065671;28;20226;-63
2020/12/10 12:14:39;;;;;;;3.60;3.30;;;19.60;51.90;;;;;;5066154;28;20190;-64
2020/12/10 12:17:05;;;;;;;5.32;3.65;;;19.50;52.00;;;;;;5065773;28;20171;-63
2020/12/10 12:19:30;;;;;;;3.88;3.03;;;19.50;52.10;;;;;;5065723;28;20171;-61
2020/12/10 12:22:00;;;;;;;5.00;3.80;;;19.40;52.20;;;;;;5065661;28;20651;-64
2020/12/10 12:24:26;;;;;;;3.90;3.20;;;19.30;52.20;;;;;;5065067;28;20194;-64
2020/12/10 12:26:51;;;;;;;5.53;3.75;;;19.30;52.20;;;;;;5065913;28;20186;-65
2020/12/10 12:29:17;;;;;;;5.25;3.70;;;19.30;52.20;;;;;;5065835;28;20188;-64
2020/12/10 12:31:42;;;;;;;5.82;4.07;;;19.30;52.30;;;;;;5065528;28;20210;-63
2020/12/10 12:34:08;;;;;;;6.22;3.88;;;19.30;52.10;;;;;;5065330;28;20178;-64
2020/12/10 12:36:33;;;;;;;3.90;3.50;;;19.30;51.90;;;;;;5065519;28;20528;-65
2020/12/10 12:38:59;;;;;;;4.35;3.95;;;19.30;51.90;;;;;;5065752;28;20175;-65
2020/12/10 12:41:26;;;;;;;6.80;3.75;;;19.30;51.80;;;;;;5061867;28;20179;-64
2020/12/10 12:43:52;;;;;;;4.35;3.95;;;19.40;51.80;;;;;;5045488;28;20183;-64
2020/12/10 12:46:17;;;;;;;4.00;3.70;;;19.40;51.70;;;;;;5045472;28;20179;-65
2020/12/10 12:48:43;;;;;;;5.78;4.18;;;19.50;51.50;;;;;;5044819;28;20190;-64